Meath Environmental Platform

Observations for Trim Market St

Time AQI Temp °C Hum % Pres Pa CO μg/m³ H₂S μg/m³ NO μg/m³ NO₂ μg/m³ O₃ μg/m³ SO₂ μg/m³ PM1 μg/m³ PM2.5 μg/m³ PM10 μg/m³
Saturday 22 August 2026
03:00 2 13.3 67 57,392 0.39 0 2.67 6.08 54.32 0 1.43 3.69 5.6
02:51 2 13.2 68 57,343 0.48 0 4.45 8.06 51.83 0 1.43 3.66 5.61
02:50 2 13.1 68 57,331 0.59 0 4.53 9.21 48.15 0 2.85 4.63 6.89
02:49 2 13.1 68 57,326 0.46 0 3.94 7.73 47.16 0 2.85 5.11 7.53
02:48 2 13.1 68 57,319 0.41 0 3.55 6.61 52.24 0 0.71 2.18 4.97
02:47 2 13.1 68 57,308 0.43 0 3.28 8.93 43.32 0 1.43 2.66 4.33
02:46 2 13.1 68 57,296 0.43 0 3.06 10.08 44.43 0 1.43 4.12 6.25
02:45 2 13.1 68 57,282 0.4 0 2.54 5.92 51.7 0 1.43 3.14 6.25
02:44 2 13.1 68 57,265 0.42 0 2.69 6.07 53.25 0 0.71 3.14 4.98
02:43 2 13.1 68 57,246 0.42 0 3.07 6.18 50.79 0 0.71 2.64 4.35
02:41 2 13 69 57,219 0.42 0 3.08 5.77 51.21 0 1.43 2.63 4.35
02:35 2 12.9 69 57,154 0.44 0 3.55 6.24 50.78 0 2.14 3.1 6.27
02:32 2 12.9 69 57,115 0.45 0 3.58 6.3 50.36 0 1.43 2.6 5.64
02:31 2 12.8 70 57,101 0.45 0 3.32 6.25 49.19 0 2.85 3.56 6.9
02:30 2 12.8 70 57,094 0.45 0 3.31 6.52 50.18 0 1.43 2.59 4.38
02:21 2 12.6 71 56,854 0.48 0 2.9 6.99 47.53 0 2.14 3.99 6.28
02:20 2 12.6 71 56,803 0.49 0 2.95 6.72 46.49 0 1.43 2.53 4.42
02:19 2 12.6 71 56,753 0.5 0 2.98 7.4 48.34 0 2.14 3.5 5.67
02:18 2 12.6 71 56,703 0.47 0 3.25 6.62 47.27 0 1.43 3.49 6.29
02:17 2 12.5 71 56,653 0.46 0 3.3 6.82 44.28 0 1.43 2.51 4.43